Odessa, Washington
Current Conditions -  °F | °C
As of 3:52 PM on Friday 28 Nov 2014 (Local Time) from KMWH Reporting Station
Broken Clouds Broken Clouds  
Wind Chill: 56°   Ceiling: 8000
Heat Index: 56°   Visibility: 10mi
Dew Point: 43°   Wind: 20mph
Humidity: 62%   Direction: 200°SSW
Pressure: 29.28"   Gusts: 28mph
Location:  47.33°N, 118.69°W
Report Text: KMWH 282352Z 20017G24KT 10SM BKN080 13/06 A2928 RMK AO2 PK WND 21028/2324 SLP916 T01330061 10150 20111 56024
Loading
Personal Weather Stations






























Interactive Weather Map New forecast layout! Learn more

10-Day Weather Forecast

Advertisements
Track Severe Weather on mobile